Time;durP1;ratioP1;P1;durP2;ratioP2;P2;SDS_P1;SDS_P2;PMS_P1;PMS_P2;Temp;Humidity;BMP_temperature;BMP_pressure;BME280_temperature;BME280_humidity;BME280_pressure;Samples;Min_cycle;Max_cycle;Signal;HPM_P1;HPM_P2
2022/09/13 00:00:58;;;;;;;7.13;3.33;;;16.30;99.90;;;;;;5014624;28;20041;-81
2022/09/13 00:03:24;;;;;;;5.80;3.08;;;16.30;99.90;;;;;;5016201;28;20140;-89
2022/09/13 00:05:50;;;;;;;4.35;3.05;;;16.30;99.90;;;;;;5017690;28;20038;-77
2022/09/13 00:08:16;;;;;;;5.75;2.63;;;16.30;99.90;;;;;;5015015;28;20036;-78
2022/09/13 00:10:43;;;;;;;6.68;3.00;;;16.30;99.90;;;;;;5014031;28;20069;-81
2022/09/13 00:13:10;;;;;;;4.68;2.83;;;16.20;99.90;;;;;;5013754;28;20057;-81
2022/09/13 00:15:41;;;;;;;6.82;3.30;;;16.20;99.90;;;;;;5013474;28;20117;-78
2022/09/13 00:18:06;;;;;;;5.13;2.83;;;16.10;99.90;;;;;;5013172;28;20030;-77
2022/09/13 00:20:32;;;;;;;7.28;2.95;;;16.10;99.90;;;;;;5015210;28;20502;-77
2022/09/13 00:22:57;;;;;;;6.55;3.13;;;16.10;99.90;;;;;;5014627;28;20050;-78
2022/09/13 00:25:23;;;;;;;6.18;3.20;;;16.00;99.90;;;;;;5014109;28;20033;-78
2022/09/13 00:27:49;;;;;;;9.98;3.38;;;16.00;99.90;;;;;;5013347;28;20468;-80
2022/09/13 00:30:15;;;;;;;7.18;3.45;;;16.00;99.90;;;;;;5010020;28;20053;-78
2022/09/13 00:32:40;;;;;;;4.22;2.90;;;15.90;99.90;;;;;;5014171;28;20038;-78
2022/09/13 00:35:07;;;;;;;5.13;3.30;;;15.90;99.90;;;;;;5029789;28;20022;-78
2022/09/13 00:37:33;;;;;;;7.57;3.65;;;15.90;99.90;;;;;;5033539;28;20036;-77
2022/09/13 00:39:59;;;;;;;6.57;3.03;;;15.90;99.90;;;;;;5013006;28;20026;-77
2022/09/13 00:42:26;;;;;;;4.30;3.35;;;15.90;99.90;;;;;;5013004;28;20091;-75
2022/09/13 00:44:57;;;;;;;7.40;3.45;;;16.00;99.90;;;;;;5013549;28;20022;-75
2022/09/13 00:47:41;;;;;;;6.18;2.78;;;15.90;99.90;;;;;;5012879;28;20029;-79
2022/09/13 00:50:21;;;;;;;4.40;2.95;;;16.00;99.90;;;;;;5013856;28;20080;-79
2022/09/13 00:53:04;;;;;;;5.95;3.25;;;16.00;99.90;;;;;;5013064;28;20040;-79
2022/09/13 00:55:35;;;;;;;7.03;3.20;;;16.00;99.90;;;;;;5015084;28;20026;-80
2022/09/13 00:58:10;;;;;;;9.00;3.35;;;16.00;99.90;;;;;;5013179;28;20030;-76
2022/09/13 01:00:38;;;;;;;5.22;3.25;;;16.00;99.90;;;;;;5011989;28;20041;-76
2022/09/13 01:03:08;;;;;;;6.20;3.40;;;16.00;99.90;;;;;;5014737;28;20115;-83
2022/09/13 01:05:39;;;;;;;5.10;3.20;;;16.00;99.90;;;;;;5031909;28;20550;-82
2022/09/13 01:08:14;;;;;;;5.07;3.35;;;16.00;99.90;;;;;;5015429;28;20423;-82
2022/09/13 01:10:42;;;;;;;4.78;3.25;;;16.00;99.90;;;;;;5013291;28;20040;-84
2022/09/13 01:13:21;;;;;;;10.50;3.70;;;15.90;99.90;;;;;;5014025;28;20041;-84
2022/09/13 01:15:47;;;;;;;4.90;3.28;;;15.90;99.90;;;;;;5013185;28;20033;-84
2022/09/13 01:18:14;;;;;;;8.07;3.50;;;15.80;99.90;;;;;;5013973;28;20030;-82
2022/09/13 01:20:54;;;;;;;8.93;3.25;;;15.90;99.90;;;;;;5014459;28;20101;-80
2022/09/13 01:23:33;;;;;;;4.80;3.50;;;15.80;99.90;;;;;;5013733;28;20026;-81
2022/09/13 01:26:35;;;;;;;5.93;3.20;;;15.80;99.90;;;;;;5014348;28;20032;-81
2022/09/13 01:29:44;;;;;;;4.55;3.25;;;15.70;99.90;;;;;;5013222;28;20026;-81
2022/09/13 01:32:43;;;;;;;5.68;2.90;;;15.70;99.90;;;;;;4997620;28;20542;-80
2022/09/13 01:35:23;;;;;;;6.95;2.92;;;15.70;99.90;;;;;;5015174;28;20493;-81
2022/09/13 01:37:52;;;;;;;7.32;3.03;;;15.70;99.90;;;;;;5014445;28;20042;-81
2022/09/13 01:40:56;;;;;;;8.05;3.63;;;15.60;99.90;;;;;;5013868;28;20029;-81
2022/09/13 01:43:22;;;;;;;6.03;3.22;;;15.60;99.90;;;;;;5013726;28;20018;-87
2022/09/13 01:46:10;;;;;;;6.03;3.33;;;15.50;99.90;;;;;;5014285;28;20574;-86
2022/09/13 01:49:11;;;;;;;4.40;3.35;;;15.50;99.90;;;;;;5014389;28;20022;-86
2022/09/13 01:52:05;;;;;;;8.82;3.40;;;15.40;99.90;;;;;;5013561;28;20026;-86
2022/09/13 01:54:52;;;;;;;5.93;3.22;;;15.40;99.90;;;;;;5014496;28;20032;-87
2022/09/13 01:57:35;;;;;;;6.93;3.47;;;15.40;99.90;;;;;;5013536;28;20057;-84
2022/09/13 02:00:08;;;;;;;5.88;3.03;;;15.40;99.90;;;;;;5013068;28;20036;-83
2022/09/13 02:02:58;;;;;;;8.32;3.08;;;15.40;99.90;;;;;;5013484;28;20034;-84
2022/09/13 02:05:32;;;;;;;6.55;3.08;;;15.40;99.90;;;;;;5014227;28;20026;-84
2022/09/13 02:08:45;;;;;;;5.78;3.08;;;15.40;99.90;;;;;;5012046;28;20030;-84
2022/09/13 02:11:14;;;;;;;5.32;2.80;;;15.40;99.90;;;;;;5007891;28;20483;-84
2022/09/13 02:13:50;;;;;;;4.80;2.90;;;15.40;99.90;;;;;;5014377;28;20026;-82
2022/09/13 02:17:02;;;;;;;4.10;3.13;;;15.30;99.90;;;;;;5013230;28;20539;-84
2022/09/13 02:19:40;;;;;;;4.20;3.05;;;15.30;99.90;;;;;;5007431;28;20034;-84
2022/09/13 02:22:09;;;;;;;9.00;3.67;;;15.10;99.90;;;;;;5013415;28;20034;-85
2022/09/13 02:24:47;;;;;;;4.93;3.67;;;15.10;99.90;;;;;;5013211;28;20069;-84
2022/09/13 02:27:18;;;;;;;7.03;3.28;;;15.00;99.90;;;;;;5012599;28;20080;-85
2022/09/13 02:29:46;;;;;;;6.05;3.70;;;15.00;99.90;;;;;;5012659;28;20068;-84
2022/09/13 02:32:19;;;;;;;4.80;3.67;;;15.00;99.90;;;;;;5013954;28;20042;-86
2022/09/13 02:34:51;;;;;;;5.53;4.35;;;15.10;99.90;;;;;;5012635;28;20104;-85
2022/09/13 02:37:17;;;;;;;4.55;3.53;;;15.30;99.90;;;;;;5013177;28;20420;-86
2022/09/13 02:39:49;;;;;;;6.35;3.38;;;15.30;99.90;;;;;;5012511;28;20061;-85
2022/09/13 02:42:30;;;;;;;7.53;3.92;;;15.30;99.90;;;;;;5014229;28;20459;-86
2022/09/13 02:45:00;;;;;;;9.07;4.28;;;15.40;99.90;;;;;;5012578;28;20368;-87
2022/09/13 02:47:35;;;;;;;5.97;3.28;;;15.40;99.90;;;;;;5013211;28;20033;-88
2022/09/13 02:50:31;;;;;;;6.13;3.38;;;15.40;99.90;;;;;;5013655;28;20029;-88
2022/09/13 02:53:06;;;;;;;4.65;3.30;;;15.40;99.90;;;;;;5013493;28;20033;-85
2022/09/13 02:55:41;;;;;;;8.25;3.58;;;15.30;99.90;;;;;;5012722;28;20022;-84
2022/09/13 02:58:18;;;;;;;5.57;3.47;;;15.30;99.90;;;;;;5013707;28;20045;-85
2022/09/13 03:00:45;;;;;;;8.27;4.15;;;15.40;99.90;;;;;;5013535;28;20034;-83
2022/09/13 03:03:14;;;;;;;4.40;3.13;;;15.50;99.90;;;;;;5013835;28;20029;-84
2022/09/13 03:05:40;;;;;;;6.30;3.20;;;15.50;99.90;;;;;;5012496;28;20479;-84
2022/09/13 03:08:09;;;;;;;7.70;3.45;;;15.40;99.90;;;;;;5012263;28;20030;-84
2022/09/13 03:10:41;;;;;;;5.72;3.72;;;15.50;99.90;;;;;;5012649;28;20037;-84
2022/09/13 03:13:21;;;;;;;6.07;3.75;;;15.40;99.90;;;;;;5013217;28;20029;-83
2022/09/13 03:16:14;;;;;;;5.82;3.63;;;15.40;99.90;;;;;;5012299;28;20037;-83
2022/09/13 03:19:21;;;;;;;5.68;3.53;;;15.40;99.90;;;;;;5012686;28;20034;-84
2022/09/13 03:21:49;;;;;;;3.80;3.00;;;15.40;99.90;;;;;;5017076;28;20026;-84
2022/09/13 03:24:39;;;;;;;5.60;3.40;;;15.40;99.90;;;;;;5016403;28;20029;-84
2022/09/13 03:27:49;;;;;;;4.38;3.13;;;15.30;99.90;;;;;;5016649;28;20038;-83
2022/09/13 03:30:16;;;;;;;4.22;2.97;;;15.30;99.90;;;;;;4997380;28;20144;-84
2022/09/13 03:32:56;;;;;;;8.57;3.30;;;15.40;99.90;;;;;;5015526;28;20041;-83
2022/09/13 03:35:39;;;;;;;6.25;3.20;;;15.30;99.90;;;;;;5017180;28;20054;-83
2022/09/13 03:38:12;;;;;;;5.50;3.20;;;15.20;99.90;;;;;;5015497;28;20046;-84
2022/09/13 03:40:51;;;;;;;6.68;3.42;;;15.30;99.90;;;;;;5016775;28;20064;-79
2022/09/13 03:43:34;;;;;;;4.63;2.78;;;15.20;99.90;;;;;;5016585;28;20030;-79
2022/09/13 03:46:04;;;;;;;4.55;2.90;;;15.20;99.90;;;;;;5015230;28;20103;-79
2022/09/13 03:48:31;;;;;;;5.68;3.13;;;15.20;99.90;;;;;;5015480;28;20032;-79
2022/09/13 03:50:57;;;;;;;7.65;3.75;;;15.10;99.90;;;;;;5015970;28;20030;-79
2022/09/13 03:53:25;;;;;;;4.78;3.38;;;15.10;99.90;;;;;;5015317;28;20040;-79
2022/09/13 03:55:52;;;;;;;7.88;3.08;;;15.10;99.90;;;;;;5015875;28;20503;-79
2022/09/13 03:58:19;;;;;;;4.68;3.00;;;15.10;99.90;;;;;;5016490;28;20026;-80
2022/09/13 04:00:45;;;;;;;5.68;2.75;;;15.10;99.90;;;;;;5015571;28;20036;-80
2022/09/13 04:03:11;;;;;;;4.88;3.15;;;15.10;99.90;;;;;;5014779;28;20038;-80
2022/09/13 04:05:37;;;;;;;4.00;2.80;;;15.10;99.90;;;;;;5015462;28;20026;-80
2022/09/13 04:08:04;;;;;;;4.15;3.05;;;15.20;99.90;;;;;;5015826;28;20018;-80
2022/09/13 04:10:31;;;;;;;3.72;2.75;;;15.20;99.90;;;;;;5015139;28;20034;-82
2022/09/13 04:12:59;;;;;;;4.75;2.88;;;15.20;99.90;;;;;;5014735;28;20084;-82
2022/09/13 04:15:25;;;;;;;4.10;3.05;;;15.20;99.90;;;;;;5015166;28;20030;-82
2022/09/13 04:17:51;;;;;;;7.72;2.97;;;15.10;99.90;;;;;;5014735;28;20034;-82
2022/09/13 04:20:16;;;;;;;6.38;2.90;;;15.10;99.90;;;;;;5015069;28;20088;-82
2022/09/13 04:22:42;;;;;;;8.75;2.70;;;15.10;99.90;;;;;;5015191;28;20454;-82
2022/09/13 04:25:08;;;;;;;6.13;2.67;;;15.20;99.90;;;;;;5014725;28;20026;-82
2022/09/13 04:27:36;;;;;;;9.80;2.75;;;15.10;99.90;;;;;;5015318;28;20029;-83
2022/09/13 04:30:02;;;;;;;4.63;2.92;;;15.10;99.90;;;;;;5014437;28;20022;-82
2022/09/13 04:32:28;;;;;;;4.40;2.67;;;15.10;99.90;;;;;;5013759;28;20073;-83
2022/09/13 04:34:54;;;;;;;8.45;2.92;;;15.10;99.90;;;;;;5014186;28;20045;-82
2022/09/13 04:37:20;;;;;;;4.55;2.58;;;15.10;99.90;;;;;;5015627;28;20033;-84
2022/09/13 04:39:45;;;;;;;5.28;3.05;;;15.10;99.90;;;;;;5015917;28;20030;-83
2022/09/13 04:42:11;;;;;;;4.03;2.92;;;15.10;99.90;;;;;;5015507;28;20128;-84
2022/09/13 04:44:37;;;;;;;7.05;2.80;;;15.10;99.90;;;;;;5014538;28;20121;-84
2022/09/13 04:47:03;;;;;;;5.28;3.15;;;15.00;99.90;;;;;;5014283;28;20026;-84
2022/09/13 04:49:28;;;;;;;5.78;2.90;;;15.00;99.90;;;;;;5014175;28;20120;-78
2022/09/13 04:51:54;;;;;;;4.38;3.00;;;14.90;99.90;;;;;;5013431;28;20025;-78
2022/09/13 04:54:20;;;;;;;5.65;2.65;;;14.90;99.90;;;;;;5014058;28;20040;-78
2022/09/13 04:56:46;;;;;;;7.05;3.10;;;14.90;99.90;;;;;;5014380;28;20022;-86
2022/09/13 04:59:12;;;;;;;4.95;2.65;;;15.00;99.90;;;;;;5013751;28;20064;-81
2022/09/13 05:01:38;;;;;;;3.85;2.67;;;15.00;99.90;;;;;;5015151;28;20033;-81
2022/09/13 05:04:05;;;;;;;4.28;2.95;;;15.10;99.90;;;;;;5013205;28;20034;-81
2022/09/13 05:06:31;;;;;;;5.55;2.90;;;15.10;99.90;;;;;;5014340;28;20079;-81
2022/09/13 05:08:56;;;;;;;4.90;2.80;;;15.10;99.90;;;;;;5014747;28;20489;-81
2022/09/13 05:11:24;;;;;;;6.80;3.15;;;15.10;99.90;;;;;;5014104;28;20543;-81
2022/09/13 05:13:53;;;;;;;4.00;2.70;;;15.00;99.90;;;;;;5015150;28;20551;-82
2022/09/13 05:16:19;;;;;;;7.57;3.33;;;15.00;99.90;;;;;;5014113;28;20104;-81
2022/09/13 05:18:45;;;;;;;13.38;3.08;;;14.90;99.90;;;;;;5015051;28;20072;-81
2022/09/13 05:21:10;;;;;;;5.90;2.90;;;14.90;99.90;;;;;;5013486;28;20041;-81
2022/09/13 05:23:37;;;;;;;3.33;2.75;;;14.90;99.90;;;;;;5013643;28;20025;-79
2022/09/13 05:26:05;;;;;;;5.05;2.45;;;15.00;99.90;;;;;;5012852;28;20026;-77
2022/09/13 05:28:35;;;;;;;7.15;2.80;;;15.00;99.90;;;;;;5013226;28;20036;-78
2022/09/13 05:31:04;;;;;;;5.07;2.92;;;15.10;99.90;;;;;;5012220;28;20051;-78
2022/09/13 05:33:33;;;;;;;5.32;2.65;;;15.10;99.90;;;;;;5013039;28;20084;-78
2022/09/13 05:35:58;;;;;;;5.13;2.80;;;15.20;99.90;;;;;;5012604;28;20525;-78
2022/09/13 05:38:24;;;;;;;4.85;2.97;;;15.20;99.90;;;;;;5013276;28;20022;-78
2022/09/13 05:40:57;;;;;;;5.57;3.10;;;15.20;99.90;;;;;;5014061;28;20069;-79
2022/09/13 05:43:27;;;;;;;4.85;2.70;;;15.20;99.90;;;;;;5014644;28;20030;-78
2022/09/13 05:46:20;;;;;;;4.13;2.88;;;15.20;99.90;;;;;;5012370;28;20061;-79
2022/09/13 05:48:47;;;;;;;7.22;3.00;;;15.20;99.90;;;;;;5011088;28;20133;-79
2022/09/13 05:51:20;;;;;;;5.78;2.70;;;15.30;99.90;;;;;;5012190;28;20222;-79
2022/09/13 05:53:48;;;;;;;5.45;3.00;;;15.40;99.90;;;;;;5012743;28;20029;-79
2022/09/13 05:56:20;;;;;;;5.07;2.83;;;15.40;99.90;;;;;;5013384;28;20036;-79
2022/09/13 05:58:47;;;;;;;3.92;2.85;;;15.40;99.90;;;;;;5012817;28;20524;-78
2022/09/13 06:01:14;;;;;;;6.15;2.53;;;15.40;99.90;;;;;;5013418;28;20064;-84
2022/09/13 06:03:40;;;;;;;5.03;2.65;;;15.40;99.90;;;;;;5012922;28;20038;-83
2022/09/13 06:06:07;;;;;;;5.15;3.05;;;15.50;99.90;;;;;;5012590;28;20033;-83
2022/09/13 06:08:33;;;;;;;5.18;3.13;;;15.50;99.90;;;;;;5014196;28;20026;-80
2022/09/13 06:11:05;;;;;;;7.47;3.13;;;15.50;99.90;;;;;;5012348;28;20038;-82
2022/09/13 06:13:31;;;;;;;3.70;2.58;;;15.50;99.90;;;;;;5013365;28;20037;-80
2022/09/13 06:15:58;;;;;;;5.22;2.50;;;15.50;99.90;;;;;;5012265;28;20037;-79
2022/09/13 06:18:24;;;;;;;9.18;2.80;;;15.60;99.90;;;;;;5013698;28;20084;-80
2022/09/13 06:20:51;;;;;;;13.02;3.03;;;15.60;99.90;;;;;;5013553;28;20531;-78
2022/09/13 06:23:16;;;;;;;3.47;2.30;;;15.60;99.90;;;;;;5013049;28;20114;-79
2022/09/13 06:25:43;;;;;;;3.97;2.10;;;15.70;99.90;;;;;;5012203;28;20061;-78
2022/09/13 06:28:09;;;;;;;5.25;2.58;;;15.70;99.90;;;;;;5013190;28;20455;-78
2022/09/13 06:30:35;;;;;;;3.45;2.42;;;15.80;99.90;;;;;;5012212;28;20049;-78
2022/09/13 06:33:00;;;;;;;7.57;2.50;;;15.80;99.90;;;;;;5011433;28;20053;-78
2022/09/13 06:35:26;;;;;;;4.53;2.47;;;15.80;99.90;;;;;;5012390;28;20104;-79
2022/09/13 06:37:57;;;;;;;4.32;2.63;;;15.90;99.90;;;;;;5012284;28;20023;-79
2022/09/13 06:40:23;;;;;;;5.53;2.60;;;16.00;99.90;;;;;;5013518;28;20097;-78
2022/09/13 06:42:49;;;;;;;4.53;2.40;;;16.10;99.90;;;;;;5013432;28;20049;-79
2022/09/13 06:45:15;;;;;;;4.43;2.55;;;16.20;99.90;;;;;;5011725;28;20478;-79
2022/09/13 06:47:41;;;;;;;7.47;2.60;;;16.30;99.90;;;;;;5012249;28;20037;-78
2022/09/13 06:50:07;;;;;;;4.05;2.53;;;16.50;99.90;;;;;;5012803;28;20030;-78
2022/09/13 06:52:32;;;;;;;3.30;2.50;;;16.60;99.90;;;;;;5012988;28;20034;-78
2022/09/13 06:54:58;;;;;;;6.78;2.75;;;16.70;99.90;;;;;;5013195;28;20028;-79
2022/09/13 06:57:25;;;;;;;6.40;2.47;;;16.90;99.90;;;;;;5015867;28;20029;-78
2022/09/13 06:59:50;;;;;;;9.63;3.30;;;17.00;99.90;;;;;;5016530;28;20037;-81
2022/09/13 07:02:16;;;;;;;5.90;2.72;;;17.10;99.90;;;;;;5016902;28;20384;-80
2022/09/13 07:04:41;;;;;;;4.20;2.30;;;17.20;99.90;;;;;;5016446;28;20382;-85
2022/09/13 07:07:07;;;;;;;11.82;3.38;;;17.20;99.90;;;;;;5016130;28;20033;-84
2022/09/13 07:09:33;;;;;;;4.95;2.50;;;17.30;99.90;;;;;;5016596;28;20032;-82
2022/09/13 07:11:59;;;;;;;6.10;2.17;;;17.30;99.90;;;;;;5015672;28;20036;-80
2022/09/13 07:14:27;;;;;;;5.63;2.22;;;17.40;99.90;;;;;;5015696;28;20146;-80
2022/09/13 07:16:54;;;;;;;7.32;3.08;;;17.50;99.90;;;;;;5016227;28;20022;-81
2022/09/13 07:19:22;;;;;;;5.35;2.60;;;17.50;99.90;;;;;;5016460;28;20403;-83
2022/09/13 07:21:49;;;;;;;5.25;2.45;;;17.60;99.90;;;;;;5015686;28;20033;-85
2022/09/13 07:24:16;;;;;;;4.32;2.20;;;17.60;99.90;;;;;;5016831;28;20026;-82
2022/09/13 07:26:41;;;;;;;6.05;1.90;;;17.70;99.90;;;;;;5016976;28;20034;-82
2022/09/13 07:29:10;;;;;;;3.50;2.00;;;17.70;99.90;;;;;;5015283;28;20025;-82
2022/09/13 07:31:38;;;;;;;4.60;1.92;;;17.70;99.90;;;;;;5016694;28;20088;-82
2022/09/13 07:34:15;;;;;;;6.15;2.22;;;17.80;99.90;;;;;;5015289;28;20061;-84
2022/09/13 07:36:41;;;;;;;4.65;2.55;;;17.90;99.90;;;;;;5015812;28;20030;-83
2022/09/13 07:39:07;;;;;;;4.97;2.90;;;17.90;99.90;;;;;;5015141;28;20025;-83
2022/09/13 07:41:33;;;;;;;4.47;2.30;;;18.00;99.90;;;;;;5016579;28;20092;-82
2022/09/13 07:44:06;;;;;;;4.05;2.10;;;18.00;99.90;;;;;;5015406;28;20467;-79
2022/09/13 07:46:42;;;;;;;4.78;2.35;;;18.00;99.90;;;;;;5015733;28;20030;-85
2022/09/13 07:49:12;;;;;;;5.68;2.38;;;18.00;99.90;;;;;;5015477;28;20022;-83
2022/09/13 07:51:40;;;;;;;5.68;2.35;;;18.10;99.90;;;;;;5018975;28;20033;-84
2022/09/13 07:54:11;;;;;;;5.93;2.22;;;18.10;99.90;;;;;;5033097;28;20053;-81
2022/09/13 07:56:38;;;;;;;5.63;2.03;;;18.10;99.90;;;;;;5015915;28;20026;-84
2022/09/13 07:59:06;;;;;;;4.60;2.53;;;18.20;99.90;;;;;;5014878;28;20117;-83
2022/09/13 08:01:37;;;;;;;3.10;1.90;;;18.20;99.90;;;;;;5015056;28;20025;-83
2022/09/13 08:04:09;;;;;;;1.77;1.58;;;18.20;99.90;;;;;;5012331;28;20037;-83
2022/09/13 08:06:36;;;;;;;5.78;2.20;;;18.20;99.90;;;;;;5013939;28;20040;-84
2022/09/13 08:09:03;;;;;;;3.90;1.90;;;18.20;99.90;;;;;;5014508;28;20104;-83
2022/09/13 08:11:31;;;;;;;5.32;2.10;;;18.20;99.90;;;;;;5015161;28;20030;-91
2022/09/13 08:13:58;;;;;;;5.00;2.00;;;18.30;99.90;;;;;;5015220;28;20025;-81
2022/09/13 08:16:25;;;;;;;3.50;1.98;;;18.40;99.90;;;;;;5014394;28;20030;-82
2022/09/13 08:18:54;;;;;;;5.40;2.00;;;18.40;99.90;;;;;;5014385;28;20121;-84
2022/09/13 08:21:20;;;;;;;2.90;1.83;;;18.50;99.90;;;;;;5014491;28;20029;-83
2022/09/13 08:23:46;;;;;;;5.32;2.17;;;18.60;99.90;;;;;;5015161;28;20022;-83
2022/09/13 08:26:12;;;;;;;3.15;1.67;;;18.60;99.90;;;;;;5014196;28;20042;-81
2022/09/13 08:28:40;;;;;;;4.82;2.25;;;18.70;99.90;;;;;;5012628;28;20037;-83
2022/09/13 08:31:08;;;;;;;4.55;2.00;;;18.70;99.90;;;;;;5015887;28;20041;-77
2022/09/13 08:33:35;;;;;;;4.50;2.15;;;18.80;99.90;;;;;;5018513;28;20100;-81
2022/09/13 08:36:01;;;;;;;4.38;2.00;;;18.90;99.90;;;;;;5014276;28;20037;-81
2022/09/13 08:38:28;;;;;;;4.13;2.00;;;19.00;99.90;;;;;;5013450;28;20105;-78
2022/09/13 08:41:24;;;;;;;4.00;2.03;;;19.10;99.90;;;;;;5013914;28;20498;-78
2022/09/13 08:43:57;;;;;;;2.58;1.73;;;19.10;99.90;;;;;;5013737;28;20360;-79
2022/09/13 08:46:36;;;;;;;3.72;1.88;;;19.10;99.90;;;;;;5014886;28;20029;-79
2022/09/13 08:49:06;;;;;;;3.67;1.90;;;19.00;99.90;;;;;;5014400;28;20482;-79
2022/09/13 08:51:48;;;;;;;5.78;2.28;;;19.10;99.90;;;;;;5013973;28;20054;-79
2022/09/13 08:54:16;;;;;;;4.60;2.05;;;19.10;99.90;;;;;;4999191;28;20105;-79
2022/09/13 08:57:07;;;;;;;3.97;2.20;;;19.20;99.90;;;;;;5018187;28;20025;-80
2022/09/13 08:59:35;;;;;;;4.83;1.90;;;19.40;99.90;;;;;;5018140;28;20084;-80
2022/09/13 09:02:22;;;;;;;3.85;1.90;;;19.50;99.90;;;;;;4997577;28;20443;-77
2022/09/13 09:05:19;;;;;;;4.75;1.70;;;19.60;99.90;;;;;;5012160;28;20026;-81
2022/09/13 09:07:46;;;;;;;7.28;2.55;;;19.50;99.90;;;;;;5013077;28;20422;-81
2022/09/13 09:10:34;;;;;;;3.22;1.90;;;19.60;99.90;;;;;;5012713;28;20033;-77
2022/09/13 09:13:29;;;;;;;2.65;1.70;;;19.60;99.90;;;;;;5013503;28;20030;-82
2022/09/13 09:16:21;;;;;;;2.38;1.83;;;19.70;99.90;;;;;;5004704;28;20045;-79
2022/09/13 09:18:48;;;;;;;4.10;2.00;;;19.80;99.90;;;;;;5011048;28;20056;-81
2022/09/13 09:21:17;;;;;;;6.13;1.75;;;19.80;99.90;;;;;;5013135;28;20039;-83
2022/09/13 09:23:53;;;;;;;8.77;2.30;;;19.80;99.90;;;;;;5014392;28;20026;-83
2022/09/13 09:26:21;;;;;;;2.45;2.00;;;19.80;99.90;;;;;;5004965;28;20033;-82
2022/09/13 09:28:53;;;;;;;7.20;1.60;;;19.90;99.90;;;;;;5013947;28;20026;-82
2022/09/13 09:31:43;;;;;;;3.90;1.77;;;19.90;99.90;;;;;;5012904;28;20394;-80
2022/09/13 09:34:28;;;;;;;2.42;1.55;;;19.90;99.90;;;;;;5025974;28;20050;-81
2022/09/13 09:37:03;;;;;;;2.70;1.98;;;19.90;99.90;;;;;;5004050;28;20029;-81
2022/09/13 09:39:38;;;;;;;3.53;1.98;;;19.90;99.90;;;;;;5012651;28;20456;-80
2022/09/13 09:42:16;;;;;;;5.57;2.28;;;20.10;99.90;;;;;;4994572;28;20038;-80
2022/09/13 09:44:45;;;;;;;5.35;1.80;;;20.20;99.90;;;;;;5009777;28;20383;-78
2022/09/13 09:47:29;;;;;;;7.93;1.80;;;20.40;99.90;;;;;;5014006;28;20120;-93
2022/09/13 09:50:17;;;;;;;3.35;1.70;;;20.60;99.90;;;;;;5011570;28;20033;-91
2022/09/13 09:52:55;;;;;;;3.47;1.85;;;20.60;99.90;;;;;;5010547;28;20467;-93
2022/09/13 09:55:44;;;;;;;4.30;1.50;;;20.60;99.90;;;;;;5014417;28;20141;-92
2022/09/13 09:58:11;;;;;;;4.55;1.60;;;20.70;99.90;;;;;;5024036;28;20080;-92
2022/09/13 10:00:50;;;;;;;8.50;1.73;;;20.70;99.90;;;;;;5012687;28;20084;-92
2022/09/13 10:03:19;;;;;;;3.15;1.77;;;20.80;99.90;;;;;;5005415;28;20038;-91
2022/09/13 10:05:45;;;;;;;4.85;1.60;;;20.80;99.90;;;;;;5013489;28;20492;-84
2022/09/13 10:08:27;;;;;;;2.63;1.60;;;20.90;99.90;;;;;;5009984;28;20116;-78
2022/09/13 10:10:56;;;;;;;3.63;1.70;;;21.00;99.90;;;;;;5012545;28;20034;-80
2022/09/13 10:13:23;;;;;;;3.78;1.70;;;21.10;99.90;;;;;;5015198;28;20535;-86
2022/09/13 10:16:00;;;;;;;2.90;1.40;;;21.30;99.90;;;;;;5013016;28;20460;-85
2022/09/13 10:18:30;;;;;;;3.50;1.40;;;21.40;99.90;;;;;;5007407;28;20033;-92
2022/09/13 10:21:17;;;;;;;4.13;1.43;;;21.60;99.90;;;;;;5013682;28;20395;-88
2022/09/13 10:23:43;;;;;;;1.42;1.25;;;21.70;99.90;;;;;;5015858;28;20029;-87
2022/09/13 10:26:13;;;;;;;2.53;1.50;;;21.80;99.90;;;;;;5012942;28;20041;-88
2022/09/13 10:28:56;;;;;;;2.13;1.50;;;21.90;99.90;;;;;;5015452;28;20049;-88
2022/09/13 10:31:29;;;;;;;3.17;1.88;;;22.00;99.90;;;;;;5014483;28;20037;-90
2022/09/13 10:34:02;;;;;;;2.55;1.63;;;22.00;99.90;;;;;;5013577;28;20065;-90
2022/09/13 10:36:33;;;;;;;2.10;1.48;;;22.10;99.90;;;;;;5012902;28;20060;-91
2022/09/13 10:39:05;;;;;;;2.35;1.23;;;22.20;99.90;;;;;;5013033;28;20030;-86
2022/09/13 10:41:41;;;;;;;2.60;1.30;;;22.20;99.90;;;;;;5012143;28;20088;-86
2022/09/13 10:44:35;;;;;;;4.18;1.50;;;22.20;99.90;;;;;;5012665;28;20079;-86
2022/09/13 10:47:05;;;;;;;4.68;1.50;;;22.30;99.90;;;;;;5013335;28;20037;-82
2022/09/13 10:49:38;;;;;;;5.47;2.00;;;22.30;99.90;;;;;;5012018;28;20041;-83
2022/09/13 10:52:28;;;;;;;3.40;1.35;;;22.30;99.90;;;;;;5012336;28;20038;-81
2022/09/13 10:54:54;;;;;;;4.40;1.45;;;22.30;99.90;;;;;;5011908;28;20056;-79
2022/09/13 10:57:31;;;;;;;2.42;1.33;;;22.30;99.90;;;;;;5019672;28;20029;-79
2022/09/13 10:59:56;;;;;;;3.88;1.40;;;22.30;99.90;;;;;;5011788;28;20025;-79
2022/09/13 11:02:42;;;;;;;2.55;1.42;;;22.40;99.90;;;;;;5011328;28;20034;-78
2022/09/13 11:05:26;;;;;;;2.47;1.52;;;22.50;99.90;;;;;;5011585;28;20062;-79
2022/09/13 11:08:11;;;;;;;2.35;1.48;;;22.60;99.90;;;;;;5011640;28;20045;-77
2022/09/13 11:11:00;;;;;;;2.30;1.80;;;22.70;99.90;;;;;;5011476;28;20030;-79
2022/09/13 11:13:40;;;;;;;2.88;1.40;;;22.80;99.90;;;;;;5000596;28;20046;-78
2022/09/13 11:16:27;;;;;;;3.22;1.50;;;22.80;99.90;;;;;;5006211;28;20101;-80
2022/09/13 11:19:13;;;;;;;2.35;1.20;;;22.90;99.90;;;;;;5012927;28;20037;-78
2022/09/13 11:21:50;;;;;;;3.88;1.70;;;22.90;99.90;;;;;;5008963;28;20064;-81
2022/09/13 11:24:25;;;;;;;2.65;1.70;;;23.00;99.90;;;;;;5025782;28;20033;-79
2022/09/13 11:27:01;;;;;;;2.90;1.63;;;23.10;99.90;;;;;;5012165;28;20034;-79
2022/09/13 11:29:26;;;;;;;4.78;1.88;;;23.10;99.90;;;;;;5011836;28;20111;-81
2022/09/13 11:32:29;;;;;;;3.60;1.50;;;23.10;99.90;;;;;;5011864;28;20406;-81
2022/09/13 11:35:32;;;;;;;5.78;1.60;;;23.20;99.90;;;;;;5013269;28;20479;-81
2022/09/13 11:38:22;;;;;;;2.75;1.52;;;23.20;99.90;;;;;;5012606;28;20487;-81
2022/09/13 11:40:57;;;;;;;3.67;1.40;;;23.30;99.90;;;;;;5013240;28;20022;-80
2022/09/13 11:44:01;;;;;;;3.53;1.70;;;23.50;99.90;;;;;;5016231;28;20021;-82
2022/09/13 11:46:41;;;;;;;3.00;1.70;;;23.60;99.90;;;;;;5016359;28;20029;-84
2022/09/13 11:49:27;;;;;;;2.95;1.65;;;23.60;99.90;;;;;;5015091;28;20065;-83
2022/09/13 11:52:27;;;;;;;3.70;1.50;;;23.50;99.90;;;;;;5015032;28;20040;-84
2022/09/13 11:55:12;;;;;;;3.15;1.40;;;23.60;99.90;;;;;;4998794;28;20044;-81
2022/09/13 11:58:03;;;;;;;6.53;1.70;;;23.60;99.90;;;;;;5018261;28;20026;-82
2022/09/13 12:00:41;;;;;;;3.95;1.50;;;23.60;99.90;;;;;;5008208;28;20060;-88
2022/09/13 12:03:10;;;;;;;242.82;144.65;;;23.60;99.90;;;;;;5014324;28;20112;-87
2022/09/13 12:05:49;;;;;;;98.20;60.50;;;23.60;99.90;;;;;;5015536;28;20052;-80
2022/09/13 12:08:25;;;;;;;19.17;13.10;;;23.70;99.90;;;;;;5012945;28;20025;-79
2022/09/13 12:11:10;;;;;;;7.07;4.60;;;23.90;99.90;;;;;;5015141;28;20036;-79
2022/09/13 12:13:42;;;;;;;3.28;2.30;;;24.00;99.90;;;;;;5014164;28;20125;-81
2022/09/13 12:16:13;;;;;;;2.95;1.80;;;24.10;99.50;;;;;;5014167;28;20026;-78
2022/09/13 12:19:03;;;;;;;3.97;1.42;;;24.30;99.50;;;;;;5014083;28;20375;-80
2022/09/13 12:21:35;;;;;;;1.98;1.38;;;24.40;98.90;;;;;;5014104;28;20092;-82
2022/09/13 12:24:25;;;;;;;1.85;1.00;;;24.70;98.90;;;;;;4995461;28;20064;-81
2022/09/13 12:26:59;;;;;;;3.33;1.23;;;24.90;97.40;;;;;;4996456;28;20065;-80
2022/09/13 12:29:39;;;;;;;1.55;1.15;;;25.10;97.40;;;;;;5013320;28;20030;-80
2022/09/13 12:32:07;;;;;;;4.68;1.20;;;25.20;97.40;;;;;;4998753;28;20471;-83
2022/09/13 12:34:42;;;;;;;3.95;0.70;;;25.30;96.60;;;;;;5012550;28;20093;-79
2022/09/13 12:37:35;;;;;;;2.22;0.93;;;25.40;95.90;;;;;;5014477;28;20403;-78
2022/09/13 12:40:25;;;;;;;1.23;1.00;;;25.50;94.90;;;;;;4998738;28;20018;-82
2022/09/13 12:43:08;;;;;;;1.60;0.90;;;25.70;94.20;;;;;;5013579;28;20046;-76
2022/09/13 12:45:58;;;;;;;2.13;0.90;;;25.70;94.20;;;;;;5012660;28;20263;-78
2022/09/13 12:48:30;;;;;;;4.00;1.02;;;25.90;93.30;;;;;;5012444;28;20455;-78
2022/09/13 12:51:20;;;;;;;2.03;1.00;;;26.10;93.30;;;;;;5012728;28;20053;-78
2022/09/13 12:54:24;;;;;;;2.57;1.20;;;26.40;93.70;;;;;;5012435;28;20030;-79
2022/09/13 12:57:15;;;;;;;2.67;0.88;;;26.40;93.20;;;;;;5017256;28;20262;-79
2022/09/13 13:00:18;;;;;;;2.35;0.73;;;26.60;93.00;;;;;;5015327;28;20034;-79
2022/09/13 13:03:12;;;;;;;1.20;0.93;;;26.80;91.20;;;;;;5013144;28;20045;-79
2022/09/13 13:05:42;;;;;;;3.38;0.90;;;27.00;90.50;;;;;;5013151;28;20117;-80
2022/09/13 13:08:20;;;;;;;1.23;0.70;;;27.80;90.00;;;;;;5012582;28;20030;-77
2022/09/13 13:11:09;;;;;;;1.60;1.25;;;28.70;88.00;;;;;;5012300;28;20030;-77
2022/09/13 13:13:39;;;;;;;3.50;0.77;;;28.90;83.30;;;;;;5011574;28;20026;-76
2022/09/13 13:16:36;;;;;;;3.53;0.85;;;28.50;82.70;;;;;;5013382;28;20101;-77
2022/09/13 13:19:29;;;;;;;2.45;1.10;;;28.00;83.00;;;;;;5012395;28;20030;-76
2022/09/13 13:22:16;;;;;;;1.63;0.70;;;27.60;87.20;;;;;;5014210;28;20026;-83